LGX37B LIRA-LIRP
Flight info
| Callsign | LGX37B |
|---|---|
| Flight time | 0h 35m |
| Altitude | 20000 |
| Route | GILIO DCT ELKAP L146 ELB |
| Aircraft | B38M/M-SDE1FGHILORVWXY/HB1 |
Departure
| Time | 2026-05-06 12:37 |
|---|---|
| Airport | Ciampino–G. B. Pastine International Airport (LIRA) |
Arrival
| Time | 2026-05-06 13:13 |
|---|---|
| Airport | Pisa International Airport (LIRP) |
| Time | Latitude | Longitude | Altitude | Speed | Heading |
|---|---|---|---|---|---|
| 2026-05-06 12:24 | 41.80069 | 12.59020 | 405 ft | 0 kts | 123° |
| 2026-05-06 12:32 | 41.80078 | 12.59003 | 405 ft | 4 kts | 139° |
| 2026-05-06 12:32 | 41.80097 | 12.58977 | 405 ft | 4 kts | 128° |
| 2026-05-06 12:32 | 41.80113 | 12.58948 | 405 ft | 4 kts | 120° |
| 2026-05-06 12:33 | 41.80118 | 12.58935 | 405 ft | 1 kts | 119° |
| 2026-05-06 12:35 | 41.80125 | 12.58981 | 405 ft | 13 kts | 58° |
| 2026-05-06 12:35 | 41.80208 | 12.59082 | 406 ft | 17 kts | 353° |
| 2026-05-06 12:36 | 41.80354 | 12.58990 | 403 ft | 28 kts | 332° |
| 2026-05-06 12:36 | 41.80525 | 12.58873 | 405 ft | 27 kts | 333° |
| 2026-05-06 12:36 | 41.80694 | 12.58765 | 406 ft | 26 kts | 353° |
| 2026-05-06 12:36 | 41.80733 | 12.58918 | 410 ft | 25 kts | 137° |
| 2026-05-06 12:37 | 41.80367 | 12.59185 | 410 ft | 96 kts | 153° |
| 2026-05-06 12:37 | 41.79583 | 12.59719 | 466 ft | 151 kts | 154° |
| 2026-05-06 12:37 | 41.78604 | 12.60378 | 1174 ft | 156 kts | 156° |
| 2026-05-06 12:37 | 41.77578 | 12.60893 | 1981 ft | 169 kts | 168° |
| 2026-05-06 12:38 | 41.76333 | 12.60939 | 2618 ft | 185 kts | 189° |
| 2026-05-06 12:38 | 41.75105 | 12.60421 | 3579 ft | 189 kts | 205° |
| 2026-05-06 12:38 | 41.74002 | 12.59346 | 4276 ft | 212 kts | 231° |
| 2026-05-06 12:38 | 41.73523 | 12.57397 | 4923 ft | 234 kts | 273° |
| 2026-05-06 12:39 | 41.74057 | 12.55293 | 5762 ft | 250 kts | 300° |
| 2026-05-06 12:39 | 41.75095 | 12.53322 | 6535 ft | 268 kts | 306° |
| 2026-05-06 12:39 | 41.76203 | 12.51242 | 7405 ft | 279 kts | 302° |
| 2026-05-06 12:39 | 41.77203 | 12.48978 | 8424 ft | 284 kts | 297° |
| 2026-05-06 12:40 | 41.78101 | 12.46610 | 9438 ft | 288 kts | 295° |
| 2026-05-06 12:40 | 41.78987 | 12.44181 | 10389 ft | 295 kts | 295° |
| 2026-05-06 12:40 | 41.79938 | 12.41649 | 10961 ft | 313 kts | 296° |
| 2026-05-06 12:40 | 41.80960 | 12.39020 | 11499 ft | 331 kts | 296° |
| 2026-05-06 12:41 | 41.82080 | 12.36186 | 11983 ft | 348 kts | 296° |
| 2026-05-06 12:41 | 41.83237 | 12.33251 | 12570 ft | 361 kts | 296° |
| 2026-05-06 12:41 | 41.84400 | 12.30275 | 13369 ft | 367 kts | 296° |
| 2026-05-06 12:41 | 41.85585 | 12.27220 | 14192 ft | 372 kts | 296° |
| 2026-05-06 12:42 | 41.86785 | 12.24116 | 14999 ft | 377 kts | 296° |
| 2026-05-06 12:42 | 41.87999 | 12.20979 | 15768 ft | 381 kts | 296° |
| 2026-05-06 12:42 | 41.89228 | 12.17810 | 16503 ft | 385 kts | 296° |
| 2026-05-06 12:42 | 41.90469 | 12.14608 | 17206 ft | 389 kts | 296° |
| 2026-05-06 12:43 | 41.91722 | 12.11370 | 17892 ft | 393 kts | 296° |
| 2026-05-06 12:43 | 41.92988 | 12.08091 | 18545 ft | 397 kts | 295° |
| 2026-05-06 12:43 | 41.94265 | 12.04775 | 19183 ft | 401 kts | 295° |
| 2026-05-06 12:43 | 41.95546 | 12.01442 | 19797 ft | 404 kts | 295° |
| 2026-05-06 12:44 | 41.96857 | 11.98038 | 20010 ft | 416 kts | 295° |
| 2026-05-06 12:44 | 41.98204 | 11.94535 | 20022 ft | 429 kts | 295° |
| 2026-05-06 12:44 | 41.99583 | 11.90945 | 20022 ft | 433 kts | 295° |
| 2026-05-06 12:44 | 42.00960 | 11.87360 | 20016 ft | 430 kts | 295° |
| 2026-05-06 12:45 | 42.02332 | 11.83778 | 20023 ft | 431 kts | 295° |
| 2026-05-06 12:45 | 42.03704 | 11.80189 | 20023 ft | 431 kts | 295° |
| 2026-05-06 12:45 | 42.06441 | 11.73018 | 20016 ft | 430 kts | 295° |
| 2026-05-06 12:46 | 42.07794 | 11.69468 | 20014 ft | 431 kts | 295° |
| 2026-05-06 12:46 | 42.09159 | 11.65879 | 20011 ft | 431 kts | 295° |
| 2026-05-06 12:46 | 42.10527 | 11.62279 | 20012 ft | 431 kts | 295° |
| 2026-05-06 12:46 | 42.11892 | 11.58683 | 20016 ft | 431 kts | 295° |
| 2026-05-06 12:47 | 42.13257 | 11.55081 | 20012 ft | 431 kts | 295° |
| 2026-05-06 12:47 | 42.14622 | 11.51479 | 20011 ft | 431 kts | 295° |
| 2026-05-06 12:47 | 42.15982 | 11.47882 | 20015 ft | 431 kts | 295° |
| 2026-05-06 12:47 | 42.17343 | 11.44278 | 20012 ft | 431 kts | 295° |
| 2026-05-06 12:48 | 42.18700 | 11.40673 | 20004 ft | 431 kts | 295° |
| 2026-05-06 12:48 | 42.20053 | 11.37064 | 20005 ft | 432 kts | 295° |
| 2026-05-06 12:48 | 42.21402 | 11.33490 | 20002 ft | 431 kts | 295° |
| 2026-05-06 12:48 | 42.22761 | 11.29891 | 20003 ft | 431 kts | 295° |
| 2026-05-06 12:49 | 42.24118 | 11.26285 | 20004 ft | 431 kts | 295° |
| 2026-05-06 12:49 | 42.25472 | 11.22669 | 20005 ft | 431 kts | 295° |
| 2026-05-06 12:49 | 42.26821 | 11.19059 | 20002 ft | 431 kts | 295° |
| 2026-05-06 12:49 | 42.28170 | 11.15444 | 20006 ft | 431 kts | 295° |
| 2026-05-06 12:50 | 42.29523 | 11.11821 | 20002 ft | 431 kts | 295° |
| 2026-05-06 12:50 | 42.30873 | 11.08206 | 20006 ft | 431 kts | 295° |
| 2026-05-06 12:50 | 42.32223 | 11.04582 | 20003 ft | 431 kts | 295° |
| 2026-05-06 12:50 | 42.33569 | 11.00962 | 20005 ft | 431 kts | 295° |
| 2026-05-06 12:51 | 42.34913 | 10.97341 | 20005 ft | 431 kts | 295° |
| 2026-05-06 12:51 | 42.36299 | 10.93798 | 20000 ft | 432 kts | 300° |
| 2026-05-06 12:51 | 42.38117 | 10.90543 | 20003 ft | 436 kts | 310° |
| 2026-05-06 12:51 | 42.40165 | 10.87522 | 20005 ft | 437 kts | 310° |
| 2026-05-06 12:52 | 42.42239 | 10.84516 | 19999 ft | 436 kts | 311° |
| 2026-05-06 12:52 | 42.44325 | 10.81524 | 19991 ft | 436 kts | 311° |
| 2026-05-06 12:52 | 42.46402 | 10.78539 | 19987 ft | 435 kts | 311° |
| 2026-05-06 12:52 | 42.48473 | 10.75538 | 19986 ft | 436 kts | 310° |
| 2026-05-06 12:53 | 42.50538 | 10.72526 | 19981 ft | 436 kts | 310° |
| 2026-05-06 12:53 | 42.52599 | 10.69518 | 19978 ft | 435 kts | 310° |
| 2026-05-06 12:53 | 42.54662 | 10.66510 | 19976 ft | 436 kts | 310° |
| 2026-05-06 12:53 | 42.56679 | 10.63574 | 19975 ft | 436 kts | 310° |
| 2026-05-06 12:54 | 42.58749 | 10.60559 | 19971 ft | 436 kts | 310° |
| 2026-05-06 12:54 | 42.60787 | 10.57587 | 19970 ft | 435 kts | 310° |
| 2026-05-06 12:54 | 42.62848 | 10.54572 | 19966 ft | 436 kts | 310° |
| 2026-05-06 12:54 | 42.64911 | 10.51548 | 19966 ft | 436 kts | 310° |
| 2026-05-06 12:55 | 42.66968 | 10.48528 | 19967 ft | 436 kts | 310° |
| 2026-05-06 12:55 | 42.69031 | 10.45520 | 19963 ft | 436 kts | 313° |
| 2026-05-06 12:55 | 42.71405 | 10.42930 | 19959 ft | 441 kts | 325° |
| 2026-05-06 12:55 | 42.74123 | 10.41143 | 19960 ft | 445 kts | 339° |
| 2026-05-06 12:56 | 42.77156 | 10.40261 | 19956 ft | 448 kts | 353° |
| 2026-05-06 12:56 | 42.80291 | 10.40341 | 19954 ft | 451 kts | 2° |
| 2026-05-06 12:56 | 42.83425 | 10.40683 | 19948 ft | 452 kts | 4° |
| 2026-05-06 12:56 | 42.86553 | 10.41089 | 19943 ft | 451 kts | 4° |
| 2026-05-06 12:57 | 42.89675 | 10.41496 | 19951 ft | 451 kts | 4° |
| 2026-05-06 12:57 | 42.92811 | 10.41870 | 19951 ft | 452 kts | 3° |
| 2026-05-06 12:57 | 42.95940 | 10.42213 | 19948 ft | 451 kts | 3° |
| 2026-05-06 12:57 | 42.99029 | 10.42547 | 19947 ft | 451 kts | 3° |
| 2026-05-06 12:58 | 43.02153 | 10.42899 | 19947 ft | 451 kts | 3° |
| 2026-05-06 12:58 | 43.05281 | 10.43267 | 19947 ft | 452 kts | 3° |
| 2026-05-06 12:58 | 43.08453 | 10.43644 | 19947 ft | 452 kts | 3° |
| 2026-05-06 12:58 | 43.11541 | 10.44005 | 19947 ft | 451 kts | 3° |
| 2026-05-06 12:59 | 43.14668 | 10.44365 | 19947 ft | 451 kts | 3° |
| 2026-05-06 12:59 | 43.17662 | 10.44708 | 19305 ft | 454 kts | 3° |
| 2026-05-06 12:59 | 43.20791 | 10.45068 | 18350 ft | 448 kts | 3° |
| 2026-05-06 12:59 | 43.23868 | 10.45428 | 17460 ft | 440 kts | 3° |
| 2026-05-06 13:00 | 43.26906 | 10.45785 | 16585 ft | 433 kts | 3° |
| 2026-05-06 13:00 | 43.29880 | 10.46133 | 15721 ft | 426 kts | 3° |
| 2026-05-06 13:00 | 43.32788 | 10.46472 | 14861 ft | 419 kts | 3° |
| 2026-05-06 13:00 | 43.35459 | 10.46780 | 14087 ft | 414 kts | 3° |
| 2026-05-06 13:01 | 43.38305 | 10.47111 | 13236 ft | 407 kts | 3° |
| 2026-05-06 13:01 | 43.41113 | 10.47441 | 12391 ft | 402 kts | 3° |
| 2026-05-06 13:01 | 43.43879 | 10.47765 | 11542 ft | 396 kts | 3° |
| 2026-05-06 13:01 | 43.46606 | 10.48085 | 10859 ft | 388 kts | 3° |
| 2026-05-06 13:02 | 43.49214 | 10.48393 | 10692 ft | 368 kts | 3° |
| 2026-05-06 13:02 | 43.51752 | 10.48693 | 10074 ft | 365 kts | 3° |
| 2026-05-06 13:02 | 43.54265 | 10.48987 | 9394 ft | 361 kts | 3° |
| 2026-05-06 13:02 | 43.56754 | 10.49276 | 8715 ft | 358 kts | 3° |
| 2026-05-06 13:03 | 43.59221 | 10.49562 | 8166 ft | 351 kts | 4° |
| 2026-05-06 13:03 | 43.61562 | 10.50189 | 7945 ft | 337 kts | 19° |
| 2026-05-06 13:03 | 43.63568 | 10.51711 | 7804 ft | 322 kts | 34° |
| 2026-05-06 13:03 | 43.65352 | 10.53465 | 7684 ft | 307 kts | 36° |
| 2026-05-06 13:04 | 43.67027 | 10.55198 | 7610 ft | 293 kts | 37° |
| 2026-05-06 13:04 | 43.68611 | 10.56877 | 7566 ft | 280 kts | 37° |
| 2026-05-06 13:04 | 43.70017 | 10.58362 | 7535 ft | 267 kts | 37° |
| 2026-05-06 13:04 | 43.71489 | 10.59893 | 7191 ft | 267 kts | 37° |
| 2026-05-06 13:05 | 43.73010 | 10.61465 | 6593 ft | 279 kts | 37° |
| 2026-05-06 13:05 | 43.74593 | 10.63104 | 5981 ft | 288 kts | 37° |
| 2026-05-06 13:05 | 43.76214 | 10.64786 | 5359 ft | 295 kts | 37° |
| 2026-05-06 13:05 | 43.77887 | 10.66355 | 4734 ft | 293 kts | 23° |
| 2026-05-06 13:06 | 43.79842 | 10.66804 | 4128 ft | 283 kts | 351° |
| 2026-05-06 13:06 | 43.81590 | 10.65766 | 3607 ft | 269 kts | 319° |
| 2026-05-06 13:06 | 43.82898 | 10.64048 | 3551 ft | 251 kts | 310° |
| 2026-05-06 13:06 | 43.83994 | 10.62278 | 3538 ft | 235 kts | 308° |
| 2026-05-06 13:07 | 43.85041 | 10.60569 | 3535 ft | 229 kts | 309° |
| 2026-05-06 13:07 | 43.86088 | 10.58956 | 3563 ft | 225 kts | 310° |
| 2026-05-06 13:07 | 43.87035 | 10.57338 | 3570 ft | 218 kts | 293° |
| 2026-05-06 13:07 | 43.87171 | 10.55336 | 3611 ft | 208 kts | 250° |
| 2026-05-06 13:08 | 43.86389 | 10.53660 | 3621 ft | 209 kts | 226° |
| 2026-05-06 13:08 | 43.85353 | 10.52281 | 3613 ft | 209 kts | 223° |
| 2026-05-06 13:08 | 43.84340 | 10.50888 | 3617 ft | 196 kts | 226° |
| 2026-05-06 13:08 | 43.83354 | 10.49763 | 3689 ft | 179 kts | 207° |
| 2026-05-06 13:09 | 43.82255 | 10.49003 | 3774 ft | 170 kts | 205° |
| 2026-05-06 13:09 | 43.81186 | 10.48327 | 3693 ft | 168 kts | 204° |
| 2026-05-06 13:09 | 43.80089 | 10.47669 | 3184 ft | 174 kts | 203° |
| 2026-05-06 13:09 | 43.78997 | 10.47084 | 2958 ft | 163 kts | 200° |
| 2026-05-06 13:10 | 43.77888 | 10.46562 | 2490 ft | 168 kts | 198° |
| 2026-05-06 13:10 | 43.76780 | 10.46125 | 1947 ft | 165 kts | 195° |
| 2026-05-06 13:10 | 43.75664 | 10.45790 | 1427 ft | 161 kts | 194° |
| 2026-05-06 13:10 | 43.74628 | 10.45351 | 1112 ft | 154 kts | 204° |
| 2026-05-06 13:11 | 43.73687 | 10.44686 | 911 ft | 149 kts | 213° |
| 2026-05-06 13:11 | 43.72821 | 10.43886 | 738 ft | 149 kts | 216° |
| 2026-05-06 13:11 | 43.71979 | 10.43055 | 589 ft | 149 kts | 217° |
| 2026-05-06 13:11 | 43.71135 | 10.42227 | 461 ft | 150 kts | 216° |
| 2026-05-06 13:12 | 43.70293 | 10.41390 | 279 ft | 148 kts | 217° |
| 2026-05-06 13:12 | 43.69462 | 10.40537 | 62 ft | 147 kts | 217° |
| 2026-05-06 13:12 | 43.68678 | 10.39737 | 17 ft | 126 kts | 217° |
| 2026-05-06 13:12 | 43.68160 | 10.39200 | 16 ft | 56 kts | 217° |
| 2026-05-06 13:13 | 43.67857 | 10.38887 | 16 ft | 52 kts | 216° |
| 2026-05-06 13:13 | 43.67585 | 10.38608 | 18 ft | 40 kts | 217° |
| 2026-05-06 13:13 | 43.67596 | 10.38375 | 13 ft | 27 kts | 313° |
| 2026-05-06 13:13 | 43.67715 | 10.38176 | 14 ft | 26 kts | 308° |
| 2026-05-06 13:14 | 43.67872 | 10.38174 | 14 ft | 25 kts | 32° |
| 2026-05-06 13:14 | 43.68013 | 10.38317 | 14 ft | 25 kts | 37° |
| 2026-05-06 13:14 | 43.68135 | 10.38455 | 16 ft | 17 kts | 68° |
| 2026-05-06 13:14 | 43.68116 | 10.38528 | 14 ft | 0 kts | 127° |